Weimar, Texas
Current Conditions -  °F | °C
As of 2:15 AM on Thursday 18 Dec 2014 (Local Time) from K66R Reporting Station
Haze Haze  
Wind Chill: 59°   Ceiling: 500
Heat Index: 59°   Visibility: 5mi
Dew Point: 58°   Wind: 3mph
Humidity: 98%   Direction: 360°N
Pressure: 30.07"   Gusts: NA
Location:  29.7°N, 96.78°W
Report Text: K66R 180815Z AUTO 36003KT 5SM BR OVC005 15/15 A3007 RMK AO2 T01500147
Loading
Personal Weather Stations






























Interactive Weather Map New forecast layout! Learn more

10-Day Weather Forecast

Advertisements
Track Severe Weather on mobile